sensor_id;sensor_type;location;lat;lon;timestamp;pressure;altitude;pressure_sealevel;temperature;humidity
13869;BME280;7004;48.206;16.402;2023-04-01T00:01:15;98280.56;;;11.91;60.73
13869;BME280;7004;48.206;16.402;2023-04-01T00:03:42;98304.41;;;11.91;60.69
13869;BME280;7004;48.206;16.402;2023-04-01T00:06:14;98290.00;;;11.84;60.79
13869;BME280;7004;48.206;16.402;2023-04-01T00:08:40;98308.00;;;11.80;61.30
13869;BME280;7004;48.206;16.402;2023-04-01T00:11:07;98306.88;;;11.83;60.83
13869;BME280;7004;48.206;16.402;2023-04-01T00:13:33;98310.78;;;12.08;60.85
13869;BME280;7004;48.206;16.402;2023-04-01T00:16:00;98307.88;;;12.01;60.90
13869;BME280;7004;48.206;16.402;2023-04-01T00:18:27;98304.25;;;11.93;60.97
13869;BME280;7004;48.206;16.402;2023-04-01T00:20:54;98318.06;;;11.96;61.13
13869;BME280;7004;48.206;16.402;2023-04-01T00:23:21;98323.03;;;11.70;61.99
13869;BME280;7004;48.206;16.402;2023-04-01T00:25:48;98320.72;;;11.96;60.80
13869;BME280;7004;48.206;16.402;2023-04-01T00:28:18;98322.38;;;11.88;61.01
13869;BME280;7004;48.206;16.402;2023-04-01T00:30:46;98316.25;;;11.97;60.94
13869;BME280;7004;48.206;16.402;2023-04-01T00:33:13;98312.72;;;11.67;61.42
13869;BME280;7004;48.206;16.402;2023-04-01T00:35:40;98320.66;;;11.57;62.03
13869;BME280;7004;48.206;16.402;2023-04-01T00:38:08;98319.13;;;11.55;62.00
13869;BME280;7004;48.206;16.402;2023-04-01T00:40:41;98314.38;;;11.58;61.76
13869;BME280;7004;48.206;16.402;2023-04-01T00:43:15;98312.19;;;11.93;60.90
13869;BME280;7004;48.206;16.402;2023-04-01T00:45:45;98317.50;;;11.93;60.67
13869;BME280;7004;48.206;16.402;2023-04-01T00:48:22;98322.06;;;11.71;61.52
13869;BME280;7004;48.206;16.402;2023-04-01T00:51:11;98330.44;;;11.76;61.26
13869;BME280;7004;48.206;16.402;2023-04-01T00:53:44;98315.91;;;11.42;61.62
13869;BME280;7004;48.206;16.402;2023-04-01T00:56:25;98313.72;;;11.95;61.01
13869;BME280;7004;48.206;16.402;2023-04-01T00:59:16;98317.06;;;11.78;60.78
13869;BME280;7004;48.206;16.402;2023-04-01T01:01:44;98315.97;;;11.90;60.57
13869;BME280;7004;48.206;16.402;2023-04-01T01:04:32;98324.75;;;11.91;60.80
13869;BME280;7004;48.206;16.402;2023-04-01T01:07:52;98315.38;;;11.77;60.72
13869;BME280;7004;48.206;16.402;2023-04-01T01:10:40;98313.72;;;11.76;60.95
13869;BME280;7004;48.206;16.402;2023-04-01T01:13:34;98321.75;;;11.65;60.99
13869;BME280;7004;48.206;16.402;2023-04-01T01:16:21;98330.88;;;11.91;59.81
13869;BME280;7004;48.206;16.402;2023-04-01T01:25:18;98317.06;;;11.68;60.22
13869;BME280;7004;48.206;16.402;2023-04-01T01:36:59;98313.25;;;11.51;61.00
13869;BME280;7004;48.206;16.402;2023-04-01T01:39:31;98304.66;;;11.49;61.21
13869;BME280;7004;48.206;16.402;2023-04-01T01:42:05;98311.03;;;11.56;61.05
13869;BME280;7004;48.206;16.402;2023-04-01T01:44:34;98321.22;;;11.71;60.91
13869;BME280;7004;48.206;16.402;2023-04-01T01:47:02;98313.69;;;11.56;61.63
13869;BME280;7004;48.206;16.402;2023-04-01T01:49:32;98321.63;;;11.56;61.81
13869;BME280;7004;48.206;16.402;2023-04-01T01:52:00;98321.22;;;11.61;60.91
13869;BME280;7004;48.206;16.402;2023-04-01T01:54:26;98319.00;;;11.76;60.46
13869;BME280;7004;48.206;16.402;2023-04-01T01:57:07;98313.41;;;11.50;61.66
13869;BME280;7004;48.206;16.402;2023-04-01T01:59:38;98311.31;;;11.53;62.07
13869;BME280;7004;48.206;16.402;2023-04-01T02:02:07;98308.22;;;11.29;62.35
13869;BME280;7004;48.206;16.402;2023-04-01T02:04:38;98309.09;;;11.39;61.95
13869;BME280;7004;48.206;16.402;2023-04-01T02:07:15;98307.81;;;11.33;62.68
13869;BME280;7004;48.206;16.402;2023-04-01T02:09:45;98314.94;;;11.43;62.14
13869;BME280;7004;48.206;16.402;2023-04-01T02:12:14;98317.75;;;11.61;61.99
13869;BME280;7004;48.206;16.402;2023-04-01T02:14:55;98314.66;;;11.46;62.17
13869;BME280;7004;48.206;16.402;2023-04-01T02:17:29;98312.16;;;11.44;62.98
13869;BME280;7004;48.206;16.402;2023-04-01T02:20:05;98302.25;;;11.46;62.50
13869;BME280;7004;48.206;16.402;2023-04-01T02:22:39;98306.53;;;11.28;64.05
13869;BME280;7004;48.206;16.402;2023-04-01T02:25:17;98299.31;;;11.30;64.37
13869;BME280;7004;48.206;16.402;2023-04-01T02:27:47;98308.50;;;11.35;63.95
13869;BME280;7004;48.206;16.402;2023-04-01T02:30:17;98302.38;;;11.35;64.24
13869;BME280;7004;48.206;16.402;2023-04-01T02:32:46;98309.66;;;11.52;63.73
13869;BME280;7004;48.206;16.402;2023-04-01T02:35:16;98306.00;;;11.24;64.12
13869;BME280;7004;48.206;16.402;2023-04-01T02:37:45;98307.66;;;11.25;64.34
13869;BME280;7004;48.206;16.402;2023-04-01T02:40:16;98300.28;;;11.19;64.73
13869;BME280;7004;48.206;16.402;2023-04-01T02:42:42;98312.22;;;11.13;64.73
13869;BME280;7004;48.206;16.402;2023-04-01T02:45:09;98304.88;;;11.27;64.60
13869;BME280;7004;48.206;16.402;2023-04-01T02:47:36;98316.28;;;11.27;64.77
13869;BME280;7004;48.206;16.402;2023-04-01T02:50:05;98301.66;;;11.13;64.38
13869;BME280;7004;48.206;16.402;2023-04-01T02:52:31;98302.91;;;11.19;64.33
13869;BME280;7004;48.206;16.402;2023-04-01T02:54:59;98301.66;;;11.13;64.90
13869;BME280;7004;48.206;16.402;2023-04-01T02:57:25;98306.38;;;11.20;64.11
13869;BME280;7004;48.206;16.402;2023-04-01T02:59:52;98300.00;;;11.22;64.07
13869;BME280;7004;48.206;16.402;2023-04-01T03:02:18;98309.50;;;11.34;63.89
13869;BME280;7004;48.206;16.402;2023-04-01T03:04:44;98307.53;;;11.27;64.71
13869;BME280;7004;48.206;16.402;2023-04-01T03:07:11;98324.03;;;11.09;66.71
13869;BME280;7004;48.206;16.402;2023-04-01T03:09:39;98321.06;;;10.93;67.63
13869;BME280;7004;48.206;16.402;2023-04-01T03:12:06;98307.34;;;11.09;67.25
13869;BME280;7004;48.206;16.402;2023-04-01T03:14:32;98307.19;;;11.01;67.55
13869;BME280;7004;48.206;16.402;2023-04-01T03:17:01;98307.91;;;11.03;67.45
13869;BME280;7004;48.206;16.402;2023-04-01T03:19:29;98330.31;;;11.08;68.39
13869;BME280;7004;48.206;16.402;2023-04-01T03:21:59;98321.31;;;11.30;65.93
13869;BME280;7004;48.206;16.402;2023-04-01T03:24:28;98333.13;;;11.17;65.47
13869;BME280;7004;48.206;16.402;2023-04-01T03:26:55;98327.97;;;11.25;65.40
13869;BME280;7004;48.206;16.402;2023-04-01T03:29:21;98331.56;;;11.14;65.32
13869;BME280;7004;48.206;16.402;2023-04-01T03:31:48;98338.00;;;11.31;65.59
13869;BME280;7004;48.206;16.402;2023-04-01T03:34:20;98326.03;;;11.27;65.29
13869;BME280;7004;48.206;16.402;2023-04-01T03:36:52;98323.63;;;11.14;65.56
13869;BME280;7004;48.206;16.402;2023-04-01T03:39:18;98319.75;;;11.18;65.34
13869;BME280;7004;48.206;16.402;2023-04-01T03:41:45;98321.81;;;11.14;65.46
13869;BME280;7004;48.206;16.402;2023-04-01T03:44:12;98317.94;;;11.19;65.85
13869;BME280;7004;48.206;16.402;2023-04-01T03:46:38;98322.91;;;11.02;66.24
13869;BME280;7004;48.206;16.402;2023-04-01T03:49:10;98322.47;;;10.97;66.29
13869;BME280;7004;48.206;16.402;2023-04-01T03:51:39;98320.88;;;11.15;65.32
13869;BME280;7004;48.206;16.402;2023-04-01T03:54:06;98326.72;;;11.19;65.12
13869;BME280;7004;48.206;16.402;2023-04-01T03:56:33;98321.53;;;11.08;65.68
13869;BME280;7004;48.206;16.402;2023-04-01T03:59:03;98329.06;;;11.12;65.47
13869;BME280;7004;48.206;16.402;2023-04-01T04:01:30;98314.38;;;10.58;67.25
13869;BME280;7004;48.206;16.402;2023-04-01T04:04:00;98313.63;;;11.08;65.36
13869;BME280;7004;48.206;16.402;2023-04-01T04:06:27;98316.06;;;11.00;66.00
13869;BME280;7004;48.206;16.402;2023-04-01T04:08:54;98317.91;;;11.09;65.68
13869;BME280;7004;48.206;16.402;2023-04-01T04:11:22;98316.72;;;10.92;65.97
13869;BME280;7004;48.206;16.402;2023-04-01T04:13:48;98318.00;;;10.88;66.06
13869;BME280;7004;48.206;16.402;2023-04-01T04:16:16;98302.91;;;10.79;65.58
13869;BME280;7004;48.206;16.402;2023-04-01T04:18:43;98320.53;;;10.99;65.17
13869;BME280;7004;48.206;16.402;2023-04-01T04:21:14;98308.88;;;11.11;64.68
13869;BME280;7004;48.206;16.402;2023-04-01T04:23:41;98318.47;;;11.03;64.86
13869;BME280;7004;48.206;16.402;2023-04-01T04:26:11;98321.94;;;11.03;64.41
13869;BME280;7004;48.206;16.402;2023-04-01T04:28:38;98311.00;;;10.77;65.15
13869;BME280;7004;48.206;16.402;2023-04-01T04:31:05;98332.53;;;11.03;64.20
13869;BME280;7004;48.206;16.402;2023-04-01T04:33:33;98322.72;;;10.94;64.92
13869;BME280;7004;48.206;16.402;2023-04-01T04:36:01;98315.03;;;11.22;64.00
13869;BME280;7004;48.206;16.402;2023-04-01T04:38:28;98307.56;;;10.96;64.59
13869;BME280;7004;48.206;16.402;2023-04-01T04:40:56;98306.53;;;10.78;64.94
13869;BME280;7004;48.206;16.402;2023-04-01T04:43:23;98311.72;;;10.89;64.63
13869;BME280;7004;48.206;16.402;2023-04-01T04:45:50;98308.44;;;11.06;64.69
13869;BME280;7004;48.206;16.402;2023-04-01T04:48:17;98311.72;;;10.89;65.04
13869;BME280;7004;48.206;16.402;2023-04-01T04:50:48;98314.13;;;11.02;64.58
13869;BME280;7004;48.206;16.402;2023-04-01T04:53:17;98307.09;;;10.81;65.45
13869;BME280;7004;48.206;16.402;2023-04-01T04:55:46;98311.56;;;10.81;65.33
13869;BME280;7004;48.206;16.402;2023-04-01T04:58:13;98315.88;;;10.82;65.90
13869;BME280;7004;48.206;16.402;2023-04-01T05:00:39;98328.34;;;11.01;64.50
13869;BME280;7004;48.206;16.402;2023-04-01T05:03:07;98336.13;;;11.02;65.63
13869;BME280;7004;48.206;16.402;2023-04-01T05:05:33;98330.44;;;10.66;65.71
13869;BME280;7004;48.206;16.402;2023-04-01T05:08:00;98331.31;;;10.77;65.81
13869;BME280;7004;48.206;16.402;2023-04-01T05:10:26;98330.31;;;11.08;64.23
13869;BME280;7004;48.206;16.402;2023-04-01T05:12:52;98325.16;;;11.07;64.42
13869;BME280;7004;48.206;16.402;2023-04-01T05:15:19;98331.59;;;11.24;63.84
13869;BME280;7004;48.206;16.402;2023-04-01T05:17:45;98323.75;;;11.12;64.27
13869;BME280;7004;48.206;16.402;2023-04-01T05:20:13;98314.13;;;11.02;64.61
13869;BME280;7004;48.206;16.402;2023-04-01T05:22:40;98311.84;;;11.18;64.18
13869;BME280;7004;48.206;16.402;2023-04-01T05:25:07;98312.75;;;10.98;64.49
13869;BME280;7004;48.206;16.402;2023-04-01T05:27:33;98320.44;;;11.10;64.29
13869;BME280;7004;48.206;16.402;2023-04-01T05:30:00;98313.47;;;11.09;64.33
13869;BME280;7004;48.206;16.402;2023-04-01T05:32:27;98323.81;;;11.32;63.40
13869;BME280;7004;48.206;16.402;2023-04-01T05:34:54;98321.16;;;11.22;63.92
13869;BME280;7004;48.206;16.402;2023-04-01T05:37:20;98325.28;;;11.05;63.80
13869;BME280;7004;48.206;16.402;2023-04-01T05:39:48;98318.50;;;11.22;63.68
13869;BME280;7004;48.206;16.402;2023-04-01T05:42:14;98332.72;;;11.31;63.49
13869;BME280;7004;48.206;16.402;2023-04-01T05:44:41;98338.88;;;11.41;63.42
13869;BME280;7004;48.206;16.402;2023-04-01T05:47:08;98353.22;;;11.48;63.18
13869;BME280;7004;48.206;16.402;2023-04-01T05:49:35;98352.69;;;11.45;63.20
13869;BME280;7004;48.206;16.402;2023-04-01T05:52:01;98344.34;;;11.49;63.05
13869;BME280;7004;48.206;16.402;2023-04-01T05:54:28;98356.28;;;11.34;64.20
13869;BME280;7004;48.206;16.402;2023-04-01T05:56:54;98367.53;;;11.26;64.04
13869;BME280;7004;48.206;16.402;2023-04-01T05:59:20;98372.06;;;11.55;63.26
13869;BME280;7004;48.206;16.402;2023-04-01T06:01:47;98368.22;;;11.28;64.14
13869;BME280;7004;48.206;16.402;2023-04-01T06:04:16;98382.50;;;11.47;63.75
13869;BME280;7004;48.206;16.402;2023-04-01T06:06:42;98387.09;;;11.64;63.47
13869;BME280;7004;48.206;16.402;2023-04-01T06:09:29;98386.91;;;11.96;62.40
13869;BME280;7004;48.206;16.402;2023-04-01T06:18:59;98388.03;;;12.23;61.21
13869;BME280;7004;48.206;16.402;2023-04-01T06:24:43;98385.75;;;12.57;60.49
13869;BME280;7004;48.206;16.402;2023-04-01T06:43:06;98383.22;;;12.65;59.57
13869;BME280;7004;48.206;16.402;2023-04-01T06:46:07;98390.25;;;12.94;57.82
13869;BME280;7004;48.206;16.402;2023-04-01T06:54:52;98392.38;;;13.28;56.96
13869;BME280;7004;48.206;16.402;2023-04-01T06:57:41;98381.94;;;13.26;56.81
13869;BME280;7004;48.206;16.402;2023-04-01T07:03:01;98388.13;;;13.45;55.65
13869;BME280;7004;48.206;16.402;2023-04-01T07:05:34;98396.97;;;13.81;54.79
13869;BME280;7004;48.206;16.402;2023-04-01T07:08:10;98393.78;;;14.31;53.21
13869;BME280;7004;48.206;16.402;2023-04-01T07:11:44;98397.53;;;14.82;52.62
13869;BME280;7004;48.206;16.402;2023-04-01T07:20:10;98404.72;;;14.46;52.06
13869;BME280;7004;48.206;16.402;2023-04-01T07:22:56;98398.22;;;15.19;50.35
13869;BME280;7004;48.206;16.402;2023-04-01T07:25:34;98394.00;;;15.42;48.45
13869;BME280;7004;48.206;16.402;2023-04-01T07:28:14;98400.78;;;15.71;47.83
13869;BME280;7004;48.206;16.402;2023-04-01T07:31:33;98408.97;;;14.21;50.60
13869;BME280;7004;48.206;16.402;2023-04-01T07:34:25;98411.69;;;14.47;51.47
13869;BME280;7004;48.206;16.402;2023-04-01T07:37:17;98408.13;;;15.00;49.31
13869;BME280;7004;48.206;16.402;2023-04-01T07:43:21;98407.31;;;15.42;47.99
13869;BME280;7004;48.206;16.402;2023-04-01T07:51:34;98389.56;;;16.26;46.81
13869;BME280;7004;48.206;16.402;2023-04-01T07:57:51;98390.44;;;15.68;47.86
13869;BME280;7004;48.206;16.402;2023-04-01T08:03:00;98388.94;;;15.65;46.71
13869;BME280;7004;48.206;16.402;2023-04-01T08:08:35;98383.69;;;17.44;43.80
13869;BME280;7004;48.206;16.402;2023-04-01T08:11:46;98376.25;;;17.31;43.28
13869;BME280;7004;48.206;16.402;2023-04-01T08:23:31;98404.69;;;17.55;42.18
13869;BME280;7004;48.206;16.402;2023-04-01T08:26:10;98409.50;;;17.20;43.42
13869;BME280;7004;48.206;16.402;2023-04-01T08:28:59;98410.41;;;16.64;44.05
13869;BME280;7004;48.206;16.402;2023-04-01T08:33:55;98409.69;;;15.54;45.88
13869;BME280;7004;48.206;16.402;2023-04-01T08:37:08;98414.94;;;15.03;48.30
13869;BME280;7004;48.206;16.402;2023-04-01T08:39:51;98414.19;;;15.19;46.95
13869;BME280;7004;48.206;16.402;2023-04-01T08:45:38;98419.59;;;15.35;47.47
13869;BME280;7004;48.206;16.402;2023-04-01T09:15:16;98432.25;;;15.33;47.80
13869;BME280;7004;48.206;16.402;2023-04-01T09:21:02;98434.53;;;14.76;48.62
13869;BME280;7004;48.206;16.402;2023-04-01T09:53:44;98434.00;;;15.93;45.63
13869;BME280;7004;48.206;16.402;2023-04-01T10:17:14;98420.34;;;15.96;44.65
13869;BME280;7004;48.206;16.402;2023-04-01T10:20:21;98428.22;;;16.96;41.41
13869;BME280;7004;48.206;16.402;2023-04-01T10:29:55;98422.25;;;16.61;41.91
13869;BME280;7004;48.206;16.402;2023-04-01T10:44:40;98428.59;;;15.34;44.96
13869;BME280;7004;48.206;16.402;2023-04-01T10:50:38;98448.34;;;14.97;46.17
13869;BME280;7004;48.206;16.402;2023-04-01T11:27:34;98429.09;;;14.59;45.92
13869;BME280;7004;48.206;16.402;2023-04-01T11:30:19;98426.75;;;15.00;45.13
13869;BME280;7004;48.206;16.402;2023-04-01T11:38:57;98423.81;;;14.85;45.46
13869;BME280;7004;48.206;16.402;2023-04-01T11:44:21;98417.06;;;15.60;43.93
13869;BME280;7004;48.206;16.402;2023-04-01T11:47:44;98412.25;;;14.95;44.39
13869;BME280;7004;48.206;16.402;2023-04-01T12:11:07;98417.84;;;15.94;43.48
13869;BME280;7004;48.206;16.402;2023-04-01T12:14:03;98426.13;;;15.75;44.37
13869;BME280;7004;48.206;16.402;2023-04-01T12:23:03;98420.59;;;16.85;41.57
13869;BME280;7004;48.206;16.402;2023-04-01T12:35:21;98411.19;;;15.99;41.14
13869;BME280;7004;48.206;16.402;2023-04-01T12:55:16;98437.25;;;15.36;43.40
13869;BME280;7004;48.206;16.402;2023-04-01T12:58:03;98442.34;;;15.21;44.61
13869;BME280;7004;48.206;16.402;2023-04-01T13:14:36;98388.13;;;18.22;41.60
13869;BME280;7004;48.206;16.402;2023-04-01T13:25:43;98395.97;;;17.22;38.76
13869;BME280;7004;48.206;16.402;2023-04-01T13:37:24;98388.19;;;15.89;39.44
13869;BME280;7004;48.206;16.402;2023-04-01T13:43:43;98392.06;;;16.11;39.85
13869;BME280;7004;48.206;16.402;2023-04-01T13:52:59;98393.06;;;16.27;38.74
13869;BME280;7004;48.206;16.402;2023-04-01T13:58:48;98374.19;;;16.86;37.19
13869;BME280;7004;48.206;16.402;2023-04-01T14:04:30;98373.94;;;17.59;37.36
13869;BME280;7004;48.206;16.402;2023-04-01T14:07:23;98368.97;;;17.56;36.54
13869;BME280;7004;48.206;16.402;2023-04-01T14:13:15;98366.19;;;16.86;38.29
13869;BME280;7004;48.206;16.402;2023-04-01T14:21:50;98366.16;;;16.94;37.56
13869;BME280;7004;48.206;16.402;2023-04-01T14:24:56;98370.56;;;16.78;38.20
13869;BME280;7004;48.206;16.402;2023-04-01T14:28:33;98371.56;;;16.61;38.21
13869;BME280;7004;48.206;16.402;2023-04-01T14:50:50;98363.72;;;16.59;35.69
13869;BME280;7004;48.206;16.402;2023-04-01T14:53:36;98369.00;;;17.00;35.45
13869;BME280;7004;48.206;16.402;2023-04-01T14:56:05;98366.16;;;16.94;34.60
13869;BME280;7004;48.206;16.402;2023-04-01T14:58:47;98356.72;;;16.58;35.46
13869;BME280;7004;48.206;16.402;2023-04-01T15:01:39;98356.34;;;16.70;35.06
13869;BME280;7004;48.206;16.402;2023-04-01T15:10:09;98354.06;;;16.42;34.58
13869;BME280;7004;48.206;16.402;2023-04-01T15:21:47;98372.06;;;16.40;36.22
13869;BME280;7004;48.206;16.402;2023-04-01T15:28:11;98368.22;;;16.51;35.00
13869;BME280;7004;48.206;16.402;2023-04-01T15:31:05;98364.56;;;16.52;35.61
13869;BME280;7004;48.206;16.402;2023-04-01T15:46:58;98387.56;;;16.20;39.22
13869;BME280;7004;48.206;16.402;2023-04-01T15:49:37;98397.88;;;15.99;40.70
13869;BME280;7004;48.206;16.402;2023-04-01T15:55:39;98405.84;;;15.90;41.83
13869;BME280;7004;48.206;16.402;2023-04-01T16:01:38;98398.16;;;15.37;43.43
13869;BME280;7004;48.206;16.402;2023-04-01T16:14:05;98409.97;;;15.42;44.17
13869;BME280;7004;48.206;16.402;2023-04-01T16:20:12;98413.13;;;15.38;44.94
13869;BME280;7004;48.206;16.402;2023-04-01T16:23:10;98413.88;;;15.22;45.06
13869;BME280;7004;48.206;16.402;2023-04-01T16:25:44;98432.06;;;15.35;45.12
13869;BME280;7004;48.206;16.402;2023-04-01T16:33:46;98446.34;;;14.99;45.80
13869;BME280;7004;48.206;16.402;2023-04-01T16:42:58;98454.84;;;14.77;47.03
13869;BME280;7004;48.206;16.402;2023-04-01T16:45:51;98453.41;;;14.47;48.26
13869;BME280;7004;48.206;16.402;2023-04-01T16:51:18;98475.50;;;14.29;49.22
13869;BME280;7004;48.206;16.402;2023-04-01T16:54:11;98479.09;;;14.38;49.19
13869;BME280;7004;48.206;16.402;2023-04-01T16:59:37;98486.75;;;14.23;50.98
13869;BME280;7004;48.206;16.402;2023-04-01T17:05:03;98495.63;;;14.14;50.93
13869;BME280;7004;48.206;16.402;2023-04-01T17:10:52;98517.50;;;13.98;50.59
13869;BME280;7004;48.206;16.402;2023-04-01T17:13:40;98515.84;;;13.97;51.10
13869;BME280;7004;48.206;16.402;2023-04-01T17:19:01;98527.88;;;13.64;52.38
13869;BME280;7004;48.206;16.402;2023-04-01T17:42:16;98553.03;;;12.83;58.95
13869;BME280;7004;48.206;16.402;2023-04-01T17:45:21;98556.78;;;13.00;58.80
13869;BME280;7004;48.206;16.402;2023-04-01T17:48:40;98564.34;;;12.95;59.08
13869;BME280;7004;48.206;16.402;2023-04-01T17:52:06;98561.25;;;13.09;59.03
13869;BME280;7004;48.206;16.402;2023-04-01T18:06:29;98588.28;;;12.45;62.39
13869;BME280;7004;48.206;16.402;2023-04-01T18:20:24;98607.31;;;12.70;61.01
13869;BME280;7004;48.206;16.402;2023-04-01T18:26:18;98620.56;;;12.10;62.76
13869;BME280;7004;48.206;16.402;2023-04-01T18:32:36;98639.25;;;12.58;61.08
13869;BME280;7004;48.206;16.402;2023-04-01T18:35:50;98643.53;;;12.50;61.52
13869;BME280;7004;48.206;16.402;2023-04-01T18:38:39;98656.38;;;12.44;62.40
13869;BME280;7004;48.206;16.402;2023-04-01T18:47:30;98663.78;;;12.60;60.84
13869;BME280;7004;48.206;16.402;2023-04-01T18:50:37;98672.78;;;12.29;61.97
13869;BME280;7004;48.206;16.402;2023-04-01T18:53:39;98673.72;;;12.58;61.15
13869;BME280;7004;48.206;16.402;2023-04-01T18:56:24;98684.09;;;12.00;63.23
13869;BME280;7004;48.206;16.402;2023-04-01T19:10:42;98687.44;;;12.02;64.45
13869;BME280;7004;48.206;16.402;2023-04-01T19:19:36;98695.88;;;11.86;65.95
13869;BME280;7004;48.206;16.402;2023-04-01T19:25:42;98698.75;;;11.83;66.39
13869;BME280;7004;48.206;16.402;2023-04-01T19:28:41;98699.13;;;11.99;66.01
13869;BME280;7004;48.206;16.402;2023-04-01T19:31:44;98708.56;;;11.92;66.04
13869;BME280;7004;48.206;16.402;2023-04-01T19:40:18;98709.19;;;11.85;66.24
13869;BME280;7004;48.206;16.402;2023-04-01T19:45:48;98721.47;;;11.86;66.13
13869;BME280;7004;48.206;16.402;2023-04-01T19:57:51;98718.63;;;11.98;66.37
13869;BME280;7004;48.206;16.402;2023-04-01T20:09:47;98725.53;;;11.15;70.10
13869;BME280;7004;48.206;16.402;2023-04-01T20:13:26;98738.97;;;11.12;70.26
13869;BME280;7004;48.206;16.402;2023-04-01T20:15:47;98727.75;;;11.31;70.64
13869;BME280;7004;48.206;16.402;2023-04-01T20:18:41;98724.44;;;11.18;71.00
13869;BME280;7004;48.206;16.402;2023-04-01T20:21:43;98714.72;;;11.40;69.21
13869;BME280;7004;48.206;16.402;2023-04-01T20:24:44;98723.00;;;11.14;69.96
13869;BME280;7004;48.206;16.402;2023-04-01T20:27:47;98724.44;;;11.18;70.41
13869;BME280;7004;48.206;16.402;2023-04-01T20:30:29;98724.03;;;11.34;69.57
13869;BME280;7004;48.206;16.402;2023-04-01T20:33:52;98737.53;;;11.20;71.03
13869;BME280;7004;48.206;16.402;2023-04-01T20:44:08;98717.97;;;11.11;70.49
13869;BME280;7004;48.206;16.402;2023-04-01T21:14:24;98738.25;;;11.22;70.44
13869;BME280;7004;48.206;16.402;2023-04-01T21:17:17;98736.34;;;11.45;69.42
13869;BME280;7004;48.206;16.402;2023-04-01T21:22:40;98753.81;;;11.36;69.56
13869;BME280;7004;48.206;16.402;2023-04-01T21:25:27;98746.75;;;11.36;69.21
13869;BME280;7004;48.206;16.402;2023-04-01T21:37:33;98753.56;;;11.71;67.26
13869;BME280;7004;48.206;16.402;2023-04-01T21:55:51;98772.28;;;11.26;70.85
13869;BME280;7004;48.206;16.402;2023-04-01T22:07:58;98783.31;;;11.20;71.05
13869;BME280;7004;48.206;16.402;2023-04-01T22:10:51;98773.97;;;11.48;70.38
13869;BME280;7004;48.206;16.402;2023-04-01T22:13:39;98774.19;;;11.24;71.36
13869;BME280;7004;48.206;16.402;2023-04-01T22:16:23;98777.50;;;11.37;71.52
13869;BME280;7004;48.206;16.402;2023-04-01T22:27:41;98776.94;;;11.34;71.86
13869;BME280;7004;48.206;16.402;2023-04-01T22:30:31;98769.41;;;11.50;70.49
13869;BME280;7004;48.206;16.402;2023-04-01T22:33:18;98769.53;;;11.49;70.69
13869;BME280;7004;48.206;16.402;2023-04-01T22:55:51;98782.91;;;11.47;71.01
13869;BME280;7004;48.206;16.402;2023-04-01T22:58:32;98781.28;;;11.24;71.41
13869;BME280;7004;48.206;16.402;2023-04-01T23:01:07;98780.44;;;11.23;70.87
13869;BME280;7004;48.206;16.402;2023-04-01T23:03:48;98781.53;;;11.21;71.30
13869;BME280;7004;48.206;16.402;2023-04-01T23:06:35;98783.94;;;11.24;71.56
13869;BME280;7004;48.206;16.402;2023-04-01T23:09:24;98788.94;;;11.38;70.35
13869;BME280;7004;48.206;16.402;2023-04-01T23:12:07;98787.19;;;11.05;71.16
13869;BME280;7004;48.206;16.402;2023-04-01T23:14:47;98788.22;;;11.36;70.61
13869;BME280;7004;48.206;16.402;2023-04-01T23:20:36;98788.44;;;11.44;70.07
13869;BME280;7004;48.206;16.402;2023-04-01T23:23:40;98788.41;;;11.55;69.35
13869;BME280;7004;48.206;16.402;2023-04-01T23:27:08;98795.31;;;11.35;69.31
13869;BME280;7004;48.206;16.402;2023-04-01T23:29:17;98799.16;;;11.43;69.22
13869;BME280;7004;48.206;16.402;2023-04-01T23:34:33;98799.50;;;11.49;69.18
13869;BME280;7004;48.206;16.402;2023-04-01T23:37:11;98793.28;;;11.28;69.97
13869;BME280;7004;48.206;16.402;2023-04-01T23:39:51;98795.28;;;11.47;69.01
13869;BME280;7004;48.206;16.402;2023-04-01T23:42:29;98804.47;;;11.31;69.47
13869;BME280;7004;48.206;16.402;2023-04-01T23:45:15;98798.97;;;11.12;69.50
13869;BME280;7004;48.206;16.402;2023-04-01T23:47:47;98810.09;;;11.49;67.92
13869;BME280;7004;48.206;16.402;2023-04-01T23:50:23;98806.03;;;11.34;69.03
13869;BME280;7004;48.206;16.402;2023-04-01T23:53:18;98803.75;;;11.29;69.45
13869;BME280;7004;48.206;16.402;2023-04-01T23:55:46;98808.44;;;11.37;69.11
13869;BME280;7004;48.206;16.402;2023-04-01T23:58:41;98807.50;;;11.59;67.66
